createdAt,value
2019-02-07T00:02:54.597Z,77.20
2019-02-07T00:07:58.587Z,76.80
2019-02-07T00:13:02.424Z,76.50
2019-02-07T00:18:06.552Z,76.30
2019-02-07T00:23:10.708Z,75.90
2019-02-07T00:28:14.755Z,75.90
2019-02-07T00:33:18.547Z,75.90
2019-02-07T00:38:22.538Z,75.80
2019-02-07T00:43:26.378Z,75.10
2019-02-07T00:48:30.328Z,75.10
2019-02-07T00:53:34.252Z,74.90
2019-02-07T00:58:38.096Z,75.10
2019-02-07T01:03:42.179Z,74.80
2019-02-07T01:08:46.043Z,74.90
2019-02-07T01:13:49.953Z,74.80
2019-02-07T01:18:53.727Z,74.80
2019-02-07T01:23:57.602Z,74.80
2019-02-07T01:29:01.561Z,75.00
2019-02-07T01:34:05.383Z,75.30
2019-02-07T01:39:09.550Z,75.30
2019-02-07T01:44:13.448Z,75.20
2019-02-07T01:49:17.576Z,75.10
2019-02-07T01:54:21.392Z,75.30
2019-02-07T01:59:25.250Z,75.80
2019-02-07T02:04:29.019Z,75.90
2019-02-07T02:09:32.894Z,76.10
2019-02-07T02:14:36.679Z,76.50
2019-02-07T02:19:41.934Z,76.80
2019-02-07T02:24:46.032Z,76.30
2019-02-07T02:29:50.028Z,76.70
2019-02-07T02:34:53.819Z,76.70
2019-02-07T02:39:57.556Z,76.70
2019-02-07T02:45:01.500Z,77.10
2019-02-07T02:50:06.677Z,76.70
2019-02-07T02:55:12.155Z,76.70
2019-02-07T03:00:19.098Z,76.20
2019-02-07T03:05:40.845Z,76.30
2019-02-07T03:11:03.763Z,75.40
2019-02-07T03:16:44.523Z,75.40
2019-02-07T03:21:56.732Z,75.30
2019-02-07T03:27:16.971Z,75.10
2019-02-07T03:32:39.847Z,75.00
2019-02-07T03:37:59.964Z,74.60
2019-02-07T03:43:30.674Z,74.50
2019-02-07T03:48:46.353Z,74.30
2019-02-07T03:54:03.958Z,73.90
2019-02-07T03:59:26.868Z,73.50
2019-02-07T04:04:41.398Z,73.30
2019-02-07T04:10:02.541Z,73.00
2019-02-07T04:15:26.282Z,73.00
2019-02-07T04:20:48.269Z,72.50
2019-02-07T04:26:10.786Z,72.20
2019-02-07T04:31:24.205Z,72.70
2019-02-07T04:36:49.913Z,73.20
2019-02-07T04:42:07.623Z,73.30
2019-02-07T04:47:23.600Z,73.60
2019-02-07T04:52:45.350Z,73.60
2019-02-07T04:58:12.253Z,74.00
2019-02-07T05:03:53.078Z,74.00
2019-02-07T05:09:30.817Z,74.40
2019-02-07T05:14:43.557Z,74.00
2019-02-07T05:20:07.884Z,73.80
2019-02-07T05:25:29.678Z,74.00
2019-02-07T05:30:59.522Z,75.90
2019-02-07T05:36:25.422Z,74.40
2019-02-07T05:41:42.153Z,74.40
2019-02-07T05:47:13.887Z,74.50
2019-02-07T05:52:52.627Z,74.60
2019-02-07T05:58:14.050Z,74.20
2019-02-07T06:03:42.796Z,74.50
2019-02-07T06:09:05.607Z,74.00
2019-02-07T06:14:35.222Z,73.70
2019-02-07T06:19:58.587Z,73.60
2019-02-07T06:25:24.240Z,73.60
2019-02-07T06:30:37.723Z,73.60
2019-02-07T06:36:03.582Z,73.60
2019-02-07T06:41:25.219Z,72.80
2019-02-07T06:46:47.889Z,73.50
2019-02-07T06:51:59.555Z,72.30
2019-02-07T06:57:21.289Z,72.30
2019-02-07T07:02:41.658Z,72.20
2019-02-07T07:07:59.508Z,72.00
2019-02-07T07:13:20.850Z,72.10
2019-02-07T07:18:37.011Z,71.20
2019-02-07T07:24:17.420Z,70.80
2019-02-07T07:29:37.720Z,70.60
2019-02-07T07:35:03.388Z,70.50
2019-02-07T07:40:26.844Z,70.30
2019-02-07T07:45:41.336Z,70.80
2019-02-07T07:50:54.980Z,70.20
2019-02-07T07:56:05.346Z,70.20
2019-02-07T08:01:35.597Z,70.10
2019-02-07T08:06:46.984Z,70.50
2019-02-07T08:12:12.558Z,70.30
2019-02-07T08:17:30.914Z,70.20
2019-02-07T08:22:52.605Z,70.10
2019-02-07T08:28:08.037Z,70.00
2019-02-07T08:33:22.697Z,69.80
2019-02-07T08:38:38.045Z,69.70
2019-02-07T08:44:03.603Z,69.60
2019-02-07T08:49:15.393Z,69.50
2019-02-07T08:54:50.576Z,68.10
2019-02-07T09:00:08.898Z,67.30
2019-02-07T09:05:27.795Z,66.50
2019-02-07T09:10:48.066Z,65.70
2019-02-07T09:16:09.633Z,65.60
2019-02-07T09:21:23.485Z,63.90
2019-02-07T09:26:44.190Z,64.50
2019-02-07T09:32:16.266Z,64.10
2019-02-07T09:37:57.385Z,63.40
2019-02-07T09:43:13.041Z,63.50
2019-02-07T09:48:48.054Z,63.00
2019-02-07T09:54:11.241Z,61.60
2019-02-07T09:59:32.822Z,60.60
2019-02-07T10:04:52.281Z,62.80
2019-02-07T10:10:05.218Z,59.80
2019-02-07T10:15:24.757Z,58.50
2019-02-07T10:20:48.039Z,58.00
2019-02-07T10:26:09.659Z,57.60
2019-02-07T10:31:21.533Z,56.50
2019-02-07T10:36:40.723Z,56.40
2019-02-07T10:41:55.231Z,55.20
2019-02-07T10:47:25.610Z,53.50
2019-02-07T10:52:47.099Z,51.10
2019-02-07T10:58:15.808Z,50.20
2019-02-07T11:03:37.099Z,50.20
2019-02-07T11:09:05.270Z,48.50
2019-02-07T11:14:26.906Z,46.60
2019-02-07T11:19:48.602Z,47.80
2019-02-07T11:25:15.123Z,45.80
2019-02-07T11:30:30.733Z,46.00
2019-02-07T11:35:56.024Z,46.20
2019-02-07T11:41:09.955Z,46.30
2019-02-07T11:46:24.450Z,46.60
2019-02-07T11:51:46.124Z,46.60
2019-02-07T11:57:09.267Z,46.70
2019-02-07T12:02:31.368Z,45.10
2019-02-07T12:08:06.370Z,45.30
2019-02-07T12:13:28.053Z,46.60
2019-02-07T12:18:54.723Z,46.00
2019-02-07T12:24:10.162Z,46.30
2019-02-07T12:29:32.069Z,46.70
2019-02-07T12:34:51.750Z,46.80
2019-02-07T12:40:13.306Z,47.50
2019-02-07T12:45:42.920Z,47.50
2019-02-07T12:51:01.284Z,47.20
2019-02-07T12:56:33.967Z,47.30
2019-02-07T13:01:56.053Z,48.80
2019-02-07T13:07:08.165Z,47.40
2019-02-07T13:12:30.223Z,48.20
2019-02-07T13:17:43.215Z,47.60
2019-02-07T13:23:07.521Z,47.50
2019-02-07T13:28:26.981Z,47.60
2019-02-07T13:33:45.392Z,48.10
2019-02-07T13:39:08.672Z,48.00
2019-02-07T13:44:38.126Z,46.10
2019-02-07T13:50:02.504Z,46.00
2019-02-07T13:55:24.635Z,46.60
2019-02-07T14:00:36.815Z,46.70
2019-02-07T14:06:06.201Z,47.00
2019-02-07T14:11:27.359Z,48.40
2019-02-07T14:16:49.226Z,47.40
2019-02-07T14:22:06.909Z,48.80
2019-02-07T14:27:29.237Z,48.70
2019-02-07T14:32:40.174Z,49.10
2019-02-07T14:37:57.103Z,49.70
2019-02-07T14:43:13.911Z,49.70
2019-02-07T14:48:24.879Z,50.70
2019-02-07T14:53:31.550Z,53.50
2019-02-07T14:58:35.472Z,54.30
2019-02-07T15:03:39.421Z,55.20
2019-02-07T15:08:43.809Z,54.90
2019-02-07T15:13:47.804Z,55.40
2019-02-07T15:18:51.610Z,56.40
2019-02-07T15:23:55.530Z,57.50
2019-02-07T15:28:59.827Z,58.60
2019-02-07T15:34:03.643Z,61.60
2019-02-07T15:39:09.268Z,64.10
2019-02-07T15:44:13.126Z,65.60
2019-02-07T15:49:17.130Z,65.90
2019-02-07T15:54:21.218Z,66.60
2019-02-07T15:59:50.230Z,67.00
2019-02-07T16:04:55.293Z,67.40
2019-02-07T16:09:59.246Z,68.00
2019-02-07T16:15:03.255Z,67.80
2019-02-07T16:20:11.072Z,68.10
2019-02-07T16:25:15.443Z,68.20
2019-02-07T16:30:19.558Z,68.40
2019-02-07T16:35:23.325Z,69.10
2019-02-07T16:40:27.173Z,69.50
2019-02-07T16:45:30.978Z,70.10
2019-02-07T16:50:35.150Z,70.60
2019-02-07T16:55:39.240Z,70.80
2019-02-07T17:00:43.738Z,71.00
2019-02-07T17:05:47.708Z,71.30
2019-02-07T17:10:51.635Z,71.80
2019-02-07T17:15:55.792Z,72.30
2019-02-07T17:20:59.520Z,72.30
2019-02-07T17:26:03.441Z,73.00
2019-02-07T17:31:07.600Z,73.40
2019-02-07T17:36:11.504Z,73.90
2019-02-07T17:41:15.301Z,74.30
2019-02-07T17:46:19.238Z,74.30
2019-02-07T17:51:23.590Z,74.40
2019-02-07T17:56:27.553Z,74.50
2019-02-07T18:01:31.356Z,74.80
2019-02-07T18:06:35.190Z,75.00
2019-02-07T18:11:38.911Z,74.90
2019-02-07T18:16:42.758Z,75.00
2019-02-07T18:21:46.459Z,75.10
2019-02-07T18:26:50.193Z,75.40
2019-02-07T18:31:53.938Z,75.50
2019-02-07T18:36:57.660Z,75.60
2019-02-07T18:42:01.357Z,75.90
2019-02-07T18:47:05.310Z,76.30
2019-02-07T18:52:09.001Z,76.30
2019-02-07T18:57:12.717Z,77.00
2019-02-07T19:02:16.402Z,77.20
2019-02-07T19:07:20.095Z,77.50
2019-02-07T19:12:23.850Z,77.90
2019-02-07T19:17:27.622Z,78.20
2019-02-07T19:22:31.714Z,78.10
2019-02-07T19:27:35.967Z,78.70
2019-02-07T19:32:39.734Z,79.00
2019-02-07T19:37:43.461Z,79.20
2019-02-07T19:42:47.365Z,79.30
2019-02-07T19:47:51.479Z,79.70
2019-02-07T19:52:55.279Z,79.80
2019-02-07T19:57:59.374Z,80.00
2019-02-07T20:03:03.157Z,80.10
2019-02-07T20:08:07.166Z,80.40
2019-02-07T20:13:11.230Z,80.60
2019-02-07T20:18:15.093Z,80.80
2019-02-07T20:23:18.871Z,81.20
2019-02-07T20:28:23.041Z,81.40
2019-02-07T20:33:26.804Z,81.60
2019-02-07T20:38:30.510Z,81.90
2019-02-07T20:43:34.214Z,82.30
2019-02-07T20:48:37.931Z,82.70
2019-02-07T20:53:42.112Z,83.00
2019-02-07T20:58:45.894Z,83.20
2019-02-07T21:03:49.761Z,83.50
2019-02-07T21:08:53.559Z,83.80
2019-02-07T21:13:57.299Z,84.30
2019-02-07T21:19:01.038Z,84.60
2019-02-07T21:24:05.489Z,84.50
2019-02-07T21:29:09.288Z,84.70
2019-02-07T21:34:13.478Z,84.80
2019-02-07T21:39:17.190Z,85.40
2019-02-07T21:44:20.985Z,85.70
2019-02-07T21:49:25.045Z,86.00
2019-02-07T21:54:28.807Z,86.30
2019-02-07T21:59:32.568Z,86.50
2019-02-07T22:04:36.357Z,86.30
2019-02-07T22:09:40.053Z,85.80
2019-02-07T22:14:43.745Z,85.80
2019-02-07T22:19:47.446Z,85.30
2019-02-07T22:24:51.401Z,84.60
2019-02-07T22:29:55.122Z,84.50
2019-02-07T22:34:58.973Z,84.80
2019-02-07T22:40:02.770Z,84.70
2019-02-07T22:45:08.049Z,85.00
2019-02-07T22:50:14.916Z,85.00
2019-02-07T22:55:19.182Z,85.00
2019-02-07T23:01:06.345Z,85.40
2019-02-07T23:06:10.189Z,84.80
2019-02-07T23:11:14.069Z,85.00
2019-02-07T23:16:17.921Z,84.80
2019-02-07T23:21:22.179Z,85.00
2019-02-07T23:26:26.085Z,84.70
2019-02-07T23:31:29.863Z,84.90
2019-02-07T23:36:33.705Z,85.10
2019-02-07T23:41:37.737Z,85.00
2019-02-07T23:46:41.818Z,85.40
2019-02-07T23:51:45.509Z,85.50
2019-02-07T23:56:49.214Z,85.70
